createdAt,value
2018-12-13T00:00:30.349Z,2.88
2018-12-13T00:03:05.600Z,2.86
2018-12-13T00:05:39.725Z,2.85
2018-12-13T00:08:14.477Z,2.84
2018-12-13T00:10:48.053Z,2.81
2018-12-13T00:13:21.046Z,2.81
2018-12-13T00:15:54.663Z,2.72
2018-12-13T00:18:32.295Z,2.60
2018-12-13T00:21:05.227Z,2.40
2018-12-13T00:23:38.075Z,2.24
2018-12-13T00:26:13.901Z,2.13
2018-12-13T00:28:48.756Z,2.09
2018-12-13T00:31:24.202Z,1.97
2018-12-13T00:34:03.811Z,1.89
2018-12-13T00:36:39.788Z,1.84
2018-12-13T00:39:23.641Z,1.68
2018-12-13T00:41:58.949Z,1.57
2018-12-13T00:44:32.808Z,1.53
2018-12-13T00:47:08.708Z,1.45
2018-12-13T00:49:47.457Z,1.36
2018-12-13T00:52:20.484Z,1.25
2018-12-13T00:54:56.760Z,1.23
2018-12-13T00:57:30.916Z,1.24
2018-12-13T01:00:06.262Z,1.22
2018-12-13T01:02:39.484Z,1.23
2018-12-13T01:05:15.408Z,1.24
2018-12-13T01:07:49.451Z,1.26
2018-12-13T01:10:23.440Z,1.23
2018-12-13T01:12:57.756Z,1.14
2018-12-13T01:15:34.265Z,1.11
2018-12-13T01:18:09.017Z,1.11
2018-12-13T01:20:43.377Z,1.12
2018-12-13T01:23:18.286Z,1.09
2018-12-13T01:25:53.746Z,1.04
2018-12-13T01:28:28.618Z,0.95
2018-12-13T01:31:02.658Z,0.97
2018-12-13T01:33:45.305Z,1.07
2018-12-13T01:36:20.103Z,1.14
2018-12-13T01:38:54.682Z,1.21
2018-12-13T01:41:28.762Z,1.35
2018-12-13T01:44:02.937Z,1.39
2018-12-13T01:46:36.727Z,1.39
2018-12-13T01:49:13.780Z,1.30
2018-12-13T01:51:47.547Z,1.26
2018-12-13T01:54:20.445Z,1.30
2018-12-13T01:56:57.620Z,1.48
2018-12-13T01:59:34.039Z,1.51
2018-12-13T02:02:07.718Z,1.51
2018-12-13T02:04:46.381Z,1.45
2018-12-13T02:07:20.788Z,1.48
2018-12-13T02:09:58.444Z,1.48
2018-12-13T02:12:34.104Z,1.58
2018-12-13T02:15:25.590Z,1.60
2018-12-13T02:17:59.807Z,1.56
2018-12-13T02:20:38.855Z,1.63
2018-12-13T02:23:14.533Z,1.65
2018-12-13T02:25:50.073Z,1.71
2018-12-13T02:28:26.066Z,1.88
2018-12-13T02:31:03.340Z,2.04
2018-12-13T02:33:38.164Z,2.10
2018-12-13T02:36:14.384Z,2.11
2018-12-13T02:38:47.791Z,2.19
2018-12-13T02:41:22.521Z,2.20
2018-12-13T02:43:57.327Z,2.18
2018-12-13T02:46:32.520Z,2.11
2018-12-13T02:49:10.644Z,2.15
2018-12-13T02:51:47.238Z,2.16
2018-12-13T02:54:20.631Z,2.20
2018-12-13T02:56:54.890Z,2.08
2018-12-13T02:59:27.865Z,1.96
2018-12-13T03:02:00.956Z,1.85
2018-12-13T03:04:34.200Z,1.75
2018-12-13T03:07:13.716Z,1.67
2018-12-13T03:09:48.009Z,1.59
2018-12-13T03:12:24.435Z,1.48
2018-12-13T03:15:04.432Z,1.44
2018-12-13T03:17:38.574Z,1.36
2018-12-13T03:20:15.370Z,1.23
2018-12-13T03:22:50.382Z,1.16
2018-12-13T03:25:25.274Z,1.10
2018-12-13T03:27:59.631Z,1.09
2018-12-13T03:30:34.338Z,1.04
2018-12-13T03:33:09.158Z,1.04
2018-12-13T03:35:43.608Z,1.07
2018-12-13T03:38:17.451Z,1.09
2018-12-13T03:40:51.308Z,1.00
2018-12-13T03:43:25.618Z,0.87
2018-12-13T03:45:58.714Z,0.82
2018-12-13T03:48:31.867Z,0.95
2018-12-13T03:51:05.218Z,1.02
2018-12-13T03:53:38.151Z,1.01
2018-12-13T03:56:11.021Z,0.99
2018-12-13T03:58:44.525Z,0.99
2018-12-13T04:01:17.365Z,1.03
2018-12-13T04:03:50.619Z,0.96
2018-12-13T04:06:23.969Z,0.86
2018-12-13T04:08:56.865Z,0.94
2018-12-13T04:11:30.036Z,1.00
2018-12-13T04:14:03.536Z,0.95
2018-12-13T04:16:36.536Z,0.95
2018-12-13T04:19:09.426Z,0.99
2018-12-13T04:21:42.898Z,0.96
2018-12-13T04:24:16.167Z,0.91
2018-12-13T04:26:50.035Z,0.94
2018-12-13T04:29:23.600Z,0.97
2018-12-13T04:31:56.908Z,0.98
2018-12-13T04:34:29.914Z,0.93
2018-12-13T04:37:03.462Z,0.88
2018-12-13T04:39:36.645Z,0.81
2018-12-13T04:42:09.603Z,0.79
2018-12-13T04:44:43.148Z,0.73
2018-12-13T04:47:16.145Z,0.64
2018-12-13T04:49:49.651Z,0.62
2018-12-13T04:52:23.173Z,0.70
2018-12-13T04:54:56.444Z,0.64
2018-12-13T04:57:29.294Z,0.53
2018-12-13T05:00:06.139Z,0.39
2018-12-13T05:02:39.917Z,0.24
2018-12-13T05:05:13.068Z,0.20
2018-12-13T05:07:46.803Z,0.12
2018-12-13T05:10:42.192Z,0.06
2018-12-13T05:13:15.635Z,0.16
2018-12-13T05:15:48.844Z,0.19
2018-12-13T05:18:21.771Z,0.13
2018-12-13T05:21:06.713Z,0.05
2018-12-13T05:23:39.773Z,-0.03
2018-12-13T05:26:12.934Z,-0.10
2018-12-13T05:28:45.907Z,-0.11
2018-12-13T05:31:20.490Z,-0.08
2018-12-13T05:33:53.713Z,0.10
2018-12-13T05:36:26.684Z,0.09
2018-12-13T05:39:00.573Z,0.03
2018-12-13T05:41:33.964Z,0.02
2018-12-13T05:44:07.304Z,0.04
2018-12-13T05:46:41.924Z,0.08
2018-12-13T05:49:14.856Z,0.07
2018-12-13T05:51:47.862Z,0.02
2018-12-13T05:54:21.172Z,0.05
2018-12-13T05:56:54.225Z,0.00
2018-12-13T05:59:27.171Z,-0.06
2018-12-13T06:02:00.248Z,-0.15
2018-12-13T06:04:33.172Z,-0.20
2018-12-13T06:07:06.195Z,-0.14
2018-12-13T06:09:41.777Z,-0.16
2018-12-13T06:12:16.416Z,-0.12
2018-12-13T06:14:51.005Z,-0.15
2018-12-13T06:17:24.881Z,-0.14
2018-12-13T06:19:58.418Z,-0.16
2018-12-13T06:22:31.777Z,-0.21
2018-12-13T06:25:05.883Z,-0.11
2018-12-13T06:27:40.885Z,-0.14
2018-12-13T06:30:15.389Z,-0.19
2018-12-13T06:32:49.091Z,-0.18
2018-12-13T06:35:22.163Z,-0.13
2018-12-13T06:38:01.087Z,-0.06
2018-12-13T06:40:34.677Z,-0.05
2018-12-13T06:43:07.961Z,-0.17
2018-12-13T06:45:40.854Z,-0.18
2018-12-13T06:48:13.828Z,-0.06
2018-12-13T06:50:48.389Z,-0.05
2018-12-13T06:53:25.311Z,-0.11
2018-12-13T06:55:59.337Z,-0.02
2018-12-13T06:58:32.564Z,0.05
2018-12-13T07:01:05.795Z,-0.04
2018-12-13T07:03:40.651Z,-0.10
2018-12-13T07:06:15.562Z,-0.02
2018-12-13T07:08:50.105Z,-0.08
2018-12-13T07:11:22.981Z,-0.04
2018-12-13T07:13:56.942Z,-0.02
2018-12-13T07:16:30.381Z,-0.03
2018-12-13T07:19:06.585Z,-0.14
2018-12-13T07:21:39.696Z,-0.26
2018-12-13T07:24:13.952Z,-0.30
2018-12-13T07:26:48.388Z,-0.33
2018-12-13T07:29:22.244Z,-0.21
2018-12-13T07:31:55.713Z,-0.13
2018-12-13T07:34:28.723Z,-0.11
2018-12-13T07:37:02.326Z,-0.09
2018-12-13T07:39:37.506Z,-0.05
2018-12-13T07:42:10.516Z,0.06
2018-12-13T07:44:44.156Z,0.04
2018-12-13T07:47:19.302Z,0.07
2018-12-13T07:49:52.899Z,0.13
2018-12-13T07:52:30.473Z,0.22
2018-12-13T07:55:03.892Z,0.10
2018-12-13T07:57:37.152Z,0.20
2018-12-13T08:00:11.008Z,0.18
2018-12-13T08:02:47.045Z,0.05
2018-12-13T08:05:21.262Z,0.02
2018-12-13T08:07:58.583Z,0.00
2018-12-13T08:10:32.384Z,0.08
2018-12-13T08:13:05.688Z,0.03
2018-12-13T08:15:40.380Z,0.10
2018-12-13T08:18:13.454Z,0.14
2018-12-13T08:20:46.778Z,0.19
2018-12-13T08:23:20.915Z,0.25
2018-12-13T08:25:54.708Z,0.28
2018-12-13T08:28:29.620Z,0.28
2018-12-13T08:31:04.963Z,0.32
2018-12-13T08:33:38.516Z,0.31
2018-12-13T08:36:11.938Z,0.31
2018-12-13T08:38:45.315Z,0.33
2018-12-13T08:41:19.407Z,0.36
2018-12-13T08:43:52.888Z,0.35
2018-12-13T08:46:26.568Z,0.40
2018-12-13T08:48:59.737Z,0.41
2018-12-13T08:51:33.348Z,0.44
2018-12-13T08:54:06.622Z,0.51
2018-12-13T08:56:39.745Z,0.48
2018-12-13T08:59:13.388Z,0.50
2018-12-13T09:01:46.445Z,0.53
2018-12-13T09:04:19.143Z,0.64
2018-12-13T09:06:57.670Z,0.67
2018-12-13T09:09:32.475Z,0.65
2018-12-13T09:12:06.461Z,0.71
2018-12-13T09:14:44.505Z,0.72
2018-12-13T09:17:20.010Z,0.77
2018-12-13T09:19:55.026Z,0.81
2018-12-13T09:22:29.451Z,0.91
2018-12-13T09:25:05.341Z,1.00
2018-12-13T09:27:39.087Z,1.11
2018-12-13T09:30:13.119Z,1.15
2018-12-13T09:32:46.117Z,1.14
2018-12-13T09:35:18.745Z,1.15
2018-12-13T09:37:53.138Z,1.12
2018-12-13T09:40:26.977Z,1.14
2018-12-13T09:42:59.725Z,1.17
2018-12-13T09:45:32.486Z,1.10
2018-12-13T09:48:06.478Z,1.04
2018-12-13T09:50:41.473Z,1.08
2018-12-13T09:53:16.420Z,1.18
2018-12-13T09:55:49.277Z,1.25
2018-12-13T09:58:23.560Z,1.41
2018-12-13T10:00:57.144Z,1.42
2018-12-13T10:03:40.756Z,1.47
2018-12-13T10:06:14.211Z,1.46
2018-12-13T10:08:46.911Z,1.53
2018-12-13T10:11:21.720Z,1.53
2018-12-13T10:13:55.640Z,1.59
2018-12-13T10:16:28.445Z,1.68
2018-12-13T10:19:02.111Z,1.98
2018-12-13T10:21:34.792Z,2.45
2018-12-13T10:24:08.029Z,2.97
2018-12-13T10:26:41.412Z,3.51
2018-12-13T10:29:15.629Z,3.78
2018-12-13T10:31:50.048Z,3.95
2018-12-13T10:34:25.697Z,3.98
2018-12-13T10:37:01.886Z,4.03
2018-12-13T10:39:35.408Z,4.10
2018-12-13T10:42:08.746Z,4.14
2018-12-13T10:44:42.273Z,4.28
2018-12-13T10:47:15.008Z,4.49
2018-12-13T10:49:48.980Z,4.42
2018-12-13T10:52:21.777Z,4.40
2018-12-13T10:54:54.834Z,4.38
2018-12-13T10:57:27.649Z,4.40
2018-12-13T11:00:03.454Z,4.36
2018-12-13T11:03:34.675Z,4.57
2018-12-13T11:06:09.814Z,4.51
2018-12-13T11:08:46.703Z,4.45
2018-12-13T11:11:22.121Z,4.50
2018-12-13T11:13:55.792Z,4.59
2018-12-13T11:16:33.214Z,4.59
2018-12-13T11:19:07.398Z,4.64
2018-12-13T11:21:40.232Z,4.71
2018-12-13T11:24:13.963Z,4.69
2018-12-13T11:26:48.084Z,4.66
2018-12-13T11:29:55.431Z,4.67
2018-12-13T11:32:28.162Z,4.79
2018-12-13T11:35:05.208Z,4.83
2018-12-13T11:37:39.679Z,5.00
2018-12-13T11:40:13.096Z,4.89
2018-12-13T11:42:50.816Z,4.82
2018-12-13T11:45:25.536Z,4.81
2018-12-13T11:47:59.374Z,4.82
2018-12-13T11:50:33.064Z,4.80
2018-12-13T11:53:06.376Z,4.75
2018-12-13T11:55:40.519Z,4.68
2018-12-13T11:58:17.481Z,4.73
2018-12-13T12:00:50.124Z,4.78
2018-12-13T12:03:23.026Z,4.83
2018-12-13T12:05:57.437Z,4.84
2018-12-13T12:08:30.660Z,4.83
2018-12-13T12:11:03.349Z,4.82
2018-12-13T12:13:39.488Z,4.88
2018-12-13T12:16:11.974Z,4.91
2018-12-13T12:18:44.600Z,4.91
2018-12-13T12:21:20.738Z,4.93
2018-12-13T12:23:53.323Z,5.03
2018-12-13T12:26:27.202Z,5.13
2018-12-13T12:29:00.673Z,5.19
2018-12-13T12:31:33.940Z,5.25
2018-12-13T12:34:10.705Z,5.27
2018-12-13T12:36:46.348Z,5.29
2018-12-13T12:39:21.077Z,5.33
2018-12-13T12:41:53.831Z,5.41
2018-12-13T12:44:33.536Z,5.47
2018-12-13T12:47:07.486Z,5.47
2018-12-13T12:49:40.648Z,5.46
2018-12-13T12:52:15.248Z,5.50
2018-12-13T12:54:50.051Z,5.53
2018-12-13T12:57:29.231Z,5.59
2018-12-13T13:00:07.049Z,5.65
2018-12-13T13:02:40.992Z,5.60
2018-12-13T13:05:18.726Z,5.50
2018-12-13T13:07:53.095Z,5.44
2018-12-13T13:10:25.871Z,5.41
2018-12-13T13:12:58.657Z,5.36
2018-12-13T13:15:32.810Z,5.23
2018-12-13T13:18:06.459Z,5.28
2018-12-13T13:20:41.023Z,5.46
2018-12-13T13:23:16.659Z,5.57
2018-12-13T13:25:50.201Z,5.67
2018-12-13T13:28:22.938Z,5.82
2018-12-13T13:30:56.173Z,5.87
2018-12-13T13:33:30.463Z,5.83
2018-12-13T13:36:03.251Z,5.61
2018-12-13T13:38:37.969Z,5.41
2018-12-13T13:41:14.384Z,5.22
2018-12-13T13:43:47.561Z,5.14
2018-12-13T13:46:25.349Z,5.09
2018-12-13T13:48:58.266Z,5.07
2018-12-13T13:51:32.005Z,5.05
2018-12-13T13:54:05.871Z,5.10
2018-12-13T13:56:39.268Z,5.10
2018-12-13T13:59:15.461Z,5.10
2018-12-13T14:01:49.179Z,5.05
2018-12-13T14:04:23.614Z,4.99
2018-12-13T14:06:57.842Z,4.98
2018-12-13T14:09:30.688Z,4.94
2018-12-13T14:12:05.619Z,4.93
2018-12-13T14:14:40.323Z,4.93
2018-12-13T14:17:15.660Z,4.88
2018-12-13T14:19:49.727Z,4.84
2018-12-13T14:22:24.615Z,4.78
2018-12-13T14:24:57.410Z,4.73
2018-12-13T14:27:33.550Z,4.64
2018-12-13T14:30:09.335Z,4.60
2018-12-13T14:32:42.553Z,4.50
2018-12-13T14:35:17.724Z,4.47
2018-12-13T14:37:50.320Z,4.46
2018-12-13T14:40:23.058Z,4.40
2018-12-13T14:42:58.590Z,4.32
2018-12-13T14:45:32.634Z,4.17
2018-12-13T14:48:09.101Z,4.02
2018-12-13T14:50:43.302Z,3.89
2018-12-13T14:53:18.818Z,3.74
2018-12-13T14:55:52.837Z,3.62
2018-12-13T14:58:26.070Z,3.47
2018-12-13T15:00:59.453Z,3.22
2018-12-13T15:03:33.919Z,3.07
2018-12-13T15:06:07.351Z,2.93
2018-12-13T15:08:40.864Z,2.79
2018-12-13T15:11:14.681Z,2.62
2018-12-13T15:13:48.844Z,2.54
2018-12-13T15:16:23.620Z,2.45
2018-12-13T15:18:57.836Z,2.35
2018-12-13T15:21:32.240Z,2.21
2018-12-13T15:24:05.700Z,2.12
2018-12-13T15:26:41.662Z,2.04
2018-12-13T15:29:15.964Z,1.87
2018-12-13T15:31:49.865Z,1.80
2018-12-13T15:34:23.644Z,1.79
2018-12-13T15:36:56.846Z,1.74
2018-12-13T15:39:29.605Z,1.67
2018-12-13T15:42:10.096Z,1.58
2018-12-13T15:44:46.494Z,1.57
2018-12-13T15:47:19.951Z,1.52
2018-12-13T15:49:58.382Z,1.42
2018-12-13T15:52:36.078Z,1.30
2018-12-13T15:55:09.197Z,1.24
2018-12-13T15:57:43.467Z,1.21
2018-12-13T16:00:20.864Z,1.17
2018-12-13T16:02:55.926Z,1.14
2018-12-13T16:05:30.516Z,1.01
2018-12-13T16:08:04.343Z,1.01
2018-12-13T16:10:39.385Z,0.95
2018-12-13T16:13:12.617Z,0.98
2018-12-13T16:15:45.277Z,0.87
2018-12-13T16:18:22.352Z,0.77
2018-12-13T16:20:58.087Z,0.71
2018-12-13T16:23:31.502Z,0.76
2018-12-13T16:26:06.296Z,0.74
2018-12-13T16:28:40.724Z,0.79
2018-12-13T16:31:15.045Z,0.79
2018-12-13T16:33:49.216Z,0.83
2018-12-13T16:36:22.373Z,0.89
2018-12-13T16:38:57.294Z,0.97
2018-12-13T16:41:32.573Z,0.94
2018-12-13T16:44:07.759Z,0.85
2018-12-13T16:46:41.547Z,0.81
2018-12-13T16:49:14.333Z,0.72
2018-12-13T16:51:47.393Z,0.59
2018-12-13T16:54:20.013Z,0.50
2018-12-13T16:56:53.652Z,0.38
2018-12-13T16:59:27.447Z,0.27
2018-12-13T17:02:02.329Z,0.18
2018-12-13T17:04:37.457Z,0.08
2018-12-13T17:07:11.919Z,-0.02
2018-12-13T17:09:47.029Z,-0.08
2018-12-13T17:12:24.206Z,-0.02
2018-12-13T17:14:58.288Z,-0.05
2018-12-13T17:17:31.165Z,-0.07
2018-12-13T17:20:06.480Z,-0.10
2018-12-13T17:22:47.414Z,-0.07
2018-12-13T17:25:20.031Z,-0.06
2018-12-13T17:27:56.577Z,-0.08
2018-12-13T17:30:30.791Z,-0.10
2018-12-13T17:36:15.687Z,-0.22
2018-12-13T17:38:48.391Z,-0.22
2018-12-13T17:41:21.079Z,-0.21
2018-12-13T17:43:56.863Z,-0.27
2018-12-13T17:46:31.114Z,-0.27
2018-12-13T17:49:06.887Z,-0.22
2018-12-13T17:51:42.872Z,-0.11
2018-12-13T17:54:17.399Z,0.00
2018-12-13T17:56:51.777Z,0.12
2018-12-13T17:59:25.998Z,0.13
2018-12-13T18:02:02.152Z,0.11
2018-12-13T18:04:36.397Z,0.10
2018-12-13T18:07:13.931Z,0.08
2018-12-13T18:09:46.654Z,0.16
2018-12-13T18:12:19.258Z,0.22
2018-12-13T18:14:52.753Z,0.30
2018-12-13T18:17:26.378Z,0.34
2018-12-13T18:19:59.435Z,0.39
2018-12-13T18:22:34.307Z,0.50
2018-12-13T18:25:08.134Z,0.59
2018-12-13T18:27:48.790Z,0.60
2018-12-13T18:30:24.623Z,0.62
2018-12-13T18:33:03.383Z,0.71
2018-12-13T18:35:37.095Z,0.74
2018-12-13T18:38:14.187Z,0.82
2018-12-13T18:40:49.504Z,0.91
2018-12-13T18:43:23.294Z,0.95
2018-12-13T18:45:59.306Z,0.98
2018-12-13T18:48:33.704Z,1.06
2018-12-13T18:51:08.746Z,1.12
2018-12-13T18:53:42.844Z,1.17
2018-12-13T18:56:17.417Z,1.20
2018-12-13T18:58:55.380Z,1.25
2018-12-13T19:01:46.715Z,1.25
2018-12-13T19:04:30.842Z,1.31
2018-12-13T19:07:07.513Z,1.30
2018-12-13T19:09:53.359Z,1.30
2018-12-13T19:12:38.916Z,1.43
2018-12-13T19:15:33.781Z,1.42
2018-12-13T19:18:10.760Z,1.39
2018-12-13T19:20:49.375Z,1.39
2018-12-13T19:23:22.337Z,1.50
2018-12-13T19:25:58.148Z,1.48
2018-12-13T19:28:32.728Z,1.55
2018-12-13T19:31:08.718Z,1.54
2018-12-13T19:33:47.974Z,1.52
2018-12-13T19:36:21.803Z,1.58
2018-12-13T19:38:57.489Z,1.52
2018-12-13T19:41:49.004Z,1.48
2018-12-13T19:44:23.913Z,1.61
2018-12-13T19:46:58.670Z,1.54
2018-12-13T19:49:41.247Z,1.45
2018-12-13T19:52:14.070Z,1.38
2018-12-13T19:54:48.622Z,1.33
2018-12-13T19:57:23.834Z,1.20
2018-12-13T19:59:58.784Z,1.07
2018-12-13T20:02:33.801Z,0.92
2018-12-13T20:05:09.269Z,0.77
2018-12-13T20:07:42.959Z,0.69
2018-12-13T20:10:19.491Z,0.75
2018-12-13T20:12:52.919Z,0.79
2018-12-13T20:15:26.381Z,0.78
2018-12-13T20:18:02.994Z,0.77
2018-12-13T20:20:37.219Z,0.87
2018-12-13T20:23:10.529Z,0.95
2018-12-13T20:25:49.264Z,1.03
2018-12-13T20:28:22.999Z,1.06
2018-12-13T20:30:58.063Z,1.07
2018-12-13T20:33:32.871Z,1.10
2018-12-13T20:36:08.853Z,1.07
2018-12-13T20:38:42.886Z,1.05
2018-12-13T20:41:16.723Z,1.03
2018-12-13T20:43:52.934Z,0.99
2018-12-13T20:46:27.171Z,0.91
2018-12-13T20:49:05.345Z,0.81
2018-12-13T20:51:39.112Z,0.78
2018-12-13T20:54:12.053Z,0.87
2018-12-13T20:56:45.934Z,0.81
2018-12-13T20:59:20.319Z,0.67
2018-12-13T21:01:53.150Z,0.58
2018-12-13T21:04:27.831Z,0.41
2018-12-13T21:07:06.020Z,0.30
2018-12-13T21:09:39.099Z,0.18
2018-12-13T21:12:17.093Z,0.18
2018-12-13T21:14:52.656Z,0.18
2018-12-13T21:17:27.277Z,0.20
2018-12-13T21:20:01.270Z,0.26
2018-12-13T21:22:36.464Z,0.32
2018-12-13T21:25:10.746Z,0.38
2018-12-13T21:27:46.325Z,0.46
2018-12-13T21:30:19.413Z,0.53
2018-12-13T21:32:52.211Z,0.58
2018-12-13T21:35:27.361Z,0.60
2018-12-13T21:38:00.198Z,0.62
2018-12-13T21:40:35.250Z,0.62
2018-12-13T21:43:10.310Z,0.62
2018-12-13T21:45:44.031Z,0.71
2018-12-13T21:51:04.626Z,0.80
2018-12-13T21:53:42.453Z,0.75
2018-12-13T21:56:15.668Z,0.57
2018-12-13T21:58:48.872Z,0.38
2018-12-13T22:01:29.448Z,0.34
2018-12-13T22:04:03.746Z,0.37
2018-12-13T22:06:38.049Z,0.50
2018-12-13T22:09:14.163Z,0.62
2018-12-13T22:11:47.039Z,0.74
2018-12-13T22:14:21.171Z,0.83
2018-12-13T22:16:56.424Z,0.90
2018-12-13T22:19:30.144Z,0.92
2018-12-13T22:22:03.753Z,0.93
2018-12-13T22:24:37.057Z,0.95
2018-12-13T22:27:11.677Z,0.95
2018-12-13T22:29:46.001Z,0.88
2018-12-13T22:32:19.547Z,0.78
2018-12-13T22:34:52.390Z,0.67
2018-12-13T22:37:25.247Z,0.60
2018-12-13T22:39:58.813Z,0.63
2018-12-13T22:42:31.573Z,0.61
2018-12-13T22:45:13.282Z,0.75
2018-12-13T22:47:46.966Z,0.81
2018-12-13T22:50:19.821Z,0.88
2018-12-13T22:52:52.776Z,1.01
2018-12-13T22:55:25.485Z,1.02
2018-12-13T22:57:58.079Z,1.03
2018-12-13T23:00:31.301Z,1.13
2018-12-13T23:03:08.550Z,1.15
2018-12-13T23:05:41.376Z,1.12
2018-12-13T23:08:15.425Z,1.08
2018-12-13T23:10:48.313Z,1.12
2018-12-13T23:13:20.949Z,1.18
2018-12-13T23:15:54.810Z,1.19
2018-12-13T23:18:28.552Z,1.24
2018-12-13T23:21:01.358Z,1.32
2018-12-13T23:23:38.684Z,1.32
2018-12-13T23:26:12.875Z,1.29
2018-12-13T23:28:46.214Z,1.34
2018-12-13T23:31:21.404Z,1.37
2018-12-13T23:33:58.431Z,1.37
2018-12-13T23:36:31.210Z,1.35
2018-12-13T23:39:04.769Z,1.33
2018-12-13T23:41:39.403Z,1.38
2018-12-13T23:44:19.556Z,1.37
2018-12-13T23:46:54.021Z,1.35
2018-12-13T23:49:27.815Z,1.33
2018-12-13T23:52:00.411Z,1.49
2018-12-13T23:54:33.563Z,1.44
2018-12-13T23:57:07.025Z,1.55
2018-12-13T23:59:42.380Z,1.52
